sensor_id;sensor_type;location;lat;lon;timestamp;P1;durP1;ratioP1;P2;durP2;ratioP2
25715;SDS011;13573;50.936;4.328;2023-02-28T00:00:11;13.17;;;7.90;;
25715;SDS011;13573;50.936;4.328;2023-02-28T00:02:39;16.37;;;7.97;;
25715;SDS011;13573;50.936;4.328;2023-02-28T00:05:07;16.20;;;8.53;;
25715;SDS011;13573;50.936;4.328;2023-02-28T00:07:35;14.77;;;8.43;;
25715;SDS011;13573;50.936;4.328;2023-02-28T00:10:02;14.87;;;8.60;;
25715;SDS011;13573;50.936;4.328;2023-02-28T00:12:31;14.83;;;8.13;;
25715;SDS011;13573;50.936;4.328;2023-02-28T00:14:58;14.17;;;8.53;;
25715;SDS011;13573;50.936;4.328;2023-02-28T00:17:25;17.83;;;8.40;;
25715;SDS011;13573;50.936;4.328;2023-02-28T00:19:51;15.27;;;8.63;;
25715;SDS011;13573;50.936;4.328;2023-02-28T00:22:19;15.80;;;8.77;;
25715;SDS011;13573;50.936;4.328;2023-02-28T00:24:47;17.20;;;8.27;;
25715;SDS011;13573;50.936;4.328;2023-02-28T00:27:14;14.30;;;8.20;;
25715;SDS011;13573;50.936;4.328;2023-02-28T00:29:40;16.67;;;8.83;;
25715;SDS011;13573;50.936;4.328;2023-02-28T00:32:07;22.03;;;8.20;;
25715;SDS011;13573;50.936;4.328;2023-02-28T00:34:33;18.37;;;8.80;;
25715;SDS011;13573;50.936;4.328;2023-02-28T00:37:02;19.10;;;8.93;;
25715;SDS011;13573;50.936;4.328;2023-02-28T00:39:31;22.23;;;8.97;;
25715;SDS011;13573;50.936;4.328;2023-02-28T00:42:01;17.90;;;9.47;;
25715;SDS011;13573;50.936;4.328;2023-02-28T00:44:29;17.33;;;9.20;;
25715;SDS011;13573;50.936;4.328;2023-02-28T00:46:56;18.67;;;9.50;;
25715;SDS011;13573;50.936;4.328;2023-02-28T00:49:24;17.73;;;9.00;;
25715;SDS011;13573;50.936;4.328;2023-02-28T00:51:52;15.70;;;9.03;;
25715;SDS011;13573;50.936;4.328;2023-02-28T00:54:20;17.30;;;9.70;;
25715;SDS011;13573;50.936;4.328;2023-02-28T00:56:48;16.97;;;9.27;;
25715;SDS011;13573;50.936;4.328;2023-02-28T00:59:16;20.60;;;9.33;;
25715;SDS011;13573;50.936;4.328;2023-02-28T01:01:44;16.43;;;9.10;;
25715;SDS011;13573;50.936;4.328;2023-02-28T01:04:12;20.43;;;8.83;;
25715;SDS011;13573;50.936;4.328;2023-02-28T01:06:39;18.27;;;9.43;;
25715;SDS011;13573;50.936;4.328;2023-02-28T01:09:06;16.40;;;9.80;;
25715;SDS011;13573;50.936;4.328;2023-02-28T01:11:34;15.57;;;9.17;;
25715;SDS011;13573;50.936;4.328;2023-02-28T01:14:01;18.47;;;9.03;;
25715;SDS011;13573;50.936;4.328;2023-02-28T01:16:29;14.77;;;9.23;;
25715;SDS011;13573;50.936;4.328;2023-02-28T01:18:56;15.63;;;9.30;;
25715;SDS011;13573;50.936;4.328;2023-02-28T01:21:24;15.60;;;8.70;;
25715;SDS011;13573;50.936;4.328;2023-02-28T01:23:51;17.23;;;9.67;;
25715;SDS011;13573;50.936;4.328;2023-02-28T01:26:19;21.60;;;9.87;;
25715;SDS011;13573;50.936;4.328;2023-02-28T01:28:47;18.10;;;9.53;;
25715;SDS011;13573;50.936;4.328;2023-02-28T01:31:16;14.60;;;9.60;;
25715;SDS011;13573;50.936;4.328;2023-02-28T01:33:43;15.60;;;9.23;;
25715;SDS011;13573;50.936;4.328;2023-02-28T01:36:12;15.67;;;9.77;;
25715;SDS011;13573;50.936;4.328;2023-02-28T01:38:42;16.40;;;9.17;;
25715;SDS011;13573;50.936;4.328;2023-02-28T01:41:12;17.97;;;9.57;;
25715;SDS011;13573;50.936;4.328;2023-02-28T01:43:59;17.13;;;10.27;;
25715;SDS011;13573;50.936;4.328;2023-02-28T01:46:30;19.33;;;9.83;;
25715;SDS011;13573;50.936;4.328;2023-02-28T01:48:59;19.83;;;10.30;;
25715;SDS011;13573;50.936;4.328;2023-02-28T01:51:33;18.37;;;10.53;;
25715;SDS011;13573;50.936;4.328;2023-02-28T01:54:03;17.50;;;9.23;;
25715;SDS011;13573;50.936;4.328;2023-02-28T01:56:35;14.83;;;9.47;;
25715;SDS011;13573;50.936;4.328;2023-02-28T01:59:02;20.13;;;11.07;;
25715;SDS011;13573;50.936;4.328;2023-02-28T02:01:30;17.30;;;9.90;;
25715;SDS011;13573;50.936;4.328;2023-02-28T02:03:58;20.30;;;10.17;;
25715;SDS011;13573;50.936;4.328;2023-02-28T02:06:29;19.30;;;9.57;;
25715;SDS011;13573;50.936;4.328;2023-02-28T02:09:06;21.60;;;10.30;;
25715;SDS011;13573;50.936;4.328;2023-02-28T02:11:32;19.57;;;10.13;;
25715;SDS011;13573;50.936;4.328;2023-02-28T02:19:56;21.93;;;11.43;;
25715;SDS011;13573;50.936;4.328;2023-02-28T02:22:37;20.97;;;11.23;;
25715;SDS011;13573;50.936;4.328;2023-02-28T02:27:56;21.60;;;11.00;;
25715;SDS011;13573;50.936;4.328;2023-02-28T02:36:03;19.87;;;11.73;;
25715;SDS011;13573;50.936;4.328;2023-02-28T02:38:41;19.63;;;11.23;;
25715;SDS011;13573;50.936;4.328;2023-02-28T02:44:05;19.23;;;11.50;;
25715;SDS011;13573;50.936;4.328;2023-02-28T02:46:37;21.53;;;11.53;;
25715;SDS011;13573;50.936;4.328;2023-02-28T02:49:06;18.40;;;11.10;;
25715;SDS011;13573;50.936;4.328;2023-02-28T02:51:37;20.57;;;11.40;;
25715;SDS011;13573;50.936;4.328;2023-02-28T02:54:10;21.73;;;10.97;;
25715;SDS011;13573;50.936;4.328;2023-02-28T02:56:41;24.23;;;12.13;;
25715;SDS011;13573;50.936;4.328;2023-02-28T02:59:11;21.20;;;10.93;;
25715;SDS011;13573;50.936;4.328;2023-02-28T03:01:43;20.03;;;11.33;;
25715;SDS011;13573;50.936;4.328;2023-02-28T03:04:12;22.63;;;11.37;;
25715;SDS011;13573;50.936;4.328;2023-02-28T03:06:41;20.00;;;11.47;;
25715;SDS011;13573;50.936;4.328;2023-02-28T03:09:08;21.30;;;11.07;;
25715;SDS011;13573;50.936;4.328;2023-02-28T03:11:35;21.67;;;11.97;;
25715;SDS011;13573;50.936;4.328;2023-02-28T03:14:39;22.47;;;12.97;;
25715;SDS011;13573;50.936;4.328;2023-02-28T03:19:30;22.67;;;12.03;;
25715;SDS011;13573;50.936;4.328;2023-02-28T03:22:13;21.30;;;11.07;;
25715;SDS011;13573;50.936;4.328;2023-02-28T03:24:43;18.10;;;11.53;;
25715;SDS011;13573;50.936;4.328;2023-02-28T03:27:16;25.07;;;12.50;;
25715;SDS011;13573;50.936;4.328;2023-02-28T03:29:43;23.90;;;12.07;;
25715;SDS011;13573;50.936;4.328;2023-02-28T03:32:16;20.07;;;11.50;;
25715;SDS011;13573;50.936;4.328;2023-02-28T03:34:49;23.47;;;12.40;;
25715;SDS011;13573;50.936;4.328;2023-02-28T03:37:19;23.50;;;11.37;;
25715;SDS011;13573;50.936;4.328;2023-02-28T03:39:51;23.17;;;11.87;;
25715;SDS011;13573;50.936;4.328;2023-02-28T03:42:22;22.07;;;12.37;;
25715;SDS011;13573;50.936;4.328;2023-02-28T03:44:54;27.00;;;12.47;;
25715;SDS011;13573;50.936;4.328;2023-02-28T03:47:25;24.87;;;12.43;;
25715;SDS011;13573;50.936;4.328;2023-02-28T03:50:10;26.03;;;12.60;;
25715;SDS011;13573;50.936;4.328;2023-02-28T03:52:42;23.87;;;11.80;;
25715;SDS011;13573;50.936;4.328;2023-02-28T03:55:13;25.97;;;12.87;;
25715;SDS011;13573;50.936;4.328;2023-02-28T04:00:20;24.90;;;12.83;;
25715;SDS011;13573;50.936;4.328;2023-02-28T04:02:54;21.77;;;11.93;;
25715;SDS011;13573;50.936;4.328;2023-02-28T04:05:21;22.00;;;11.93;;
25715;SDS011;13573;50.936;4.328;2023-02-28T04:07:48;23.73;;;12.00;;
25715;SDS011;13573;50.936;4.328;2023-02-28T04:10:16;25.93;;;13.80;;
25715;SDS011;13573;50.936;4.328;2023-02-28T04:12:43;30.03;;;13.93;;
25715;SDS011;13573;50.936;4.328;2023-02-28T04:15:10;24.33;;;12.07;;
25715;SDS011;13573;50.936;4.328;2023-02-28T04:17:37;23.23;;;12.10;;
25715;SDS011;13573;50.936;4.328;2023-02-28T04:20:03;22.83;;;12.03;;
25715;SDS011;13573;50.936;4.328;2023-02-28T04:22:32;22.97;;;12.17;;
25715;SDS011;13573;50.936;4.328;2023-02-28T04:24:59;20.63;;;11.83;;
25715;SDS011;13573;50.936;4.328;2023-02-28T04:27:25;28.43;;;12.67;;
25715;SDS011;13573;50.936;4.328;2023-02-28T04:29:52;21.60;;;11.53;;
25715;SDS011;13573;50.936;4.328;2023-02-28T04:32:19;22.73;;;12.03;;
25715;SDS011;13573;50.936;4.328;2023-02-28T04:34:45;23.83;;;11.93;;
25715;SDS011;13573;50.936;4.328;2023-02-28T04:37:12;21.40;;;12.50;;
25715;SDS011;13573;50.936;4.328;2023-02-28T04:39:38;23.43;;;12.77;;
25715;SDS011;13573;50.936;4.328;2023-02-28T04:42:06;26.47;;;12.00;;
25715;SDS011;13573;50.936;4.328;2023-02-28T04:44:32;19.83;;;12.13;;
25715;SDS011;13573;50.936;4.328;2023-02-28T04:46:59;22.80;;;12.50;;
25715;SDS011;13573;50.936;4.328;2023-02-28T04:49:25;22.57;;;12.13;;
25715;SDS011;13573;50.936;4.328;2023-02-28T04:51:52;22.87;;;12.57;;
25715;SDS011;13573;50.936;4.328;2023-02-28T04:54:19;21.67;;;11.87;;
25715;SDS011;13573;50.936;4.328;2023-02-28T04:56:45;20.90;;;11.97;;
25715;SDS011;13573;50.936;4.328;2023-02-28T04:59:14;20.00;;;11.53;;
25715;SDS011;13573;50.936;4.328;2023-02-28T05:01:44;22.83;;;12.27;;
25715;SDS011;13573;50.936;4.328;2023-02-28T05:04:13;22.33;;;11.90;;
25715;SDS011;13573;50.936;4.328;2023-02-28T05:06:40;18.40;;;10.90;;
25715;SDS011;13573;50.936;4.328;2023-02-28T05:09:06;20.50;;;11.93;;
25715;SDS011;13573;50.936;4.328;2023-02-28T05:11:33;21.40;;;11.13;;
25715;SDS011;13573;50.936;4.328;2023-02-28T05:14:02;18.07;;;10.87;;
25715;SDS011;13573;50.936;4.328;2023-02-28T05:16:30;18.60;;;11.13;;
25715;SDS011;13573;50.936;4.328;2023-02-28T05:18:57;22.53;;;11.70;;
25715;SDS011;13573;50.936;4.328;2023-02-28T05:21:29;27.97;;;11.93;;
25715;SDS011;13573;50.936;4.328;2023-02-28T05:23:56;21.37;;;11.27;;
25715;SDS011;13573;50.936;4.328;2023-02-28T05:26:25;20.73;;;11.97;;
25715;SDS011;13573;50.936;4.328;2023-02-28T05:28:52;18.00;;;11.13;;
25715;SDS011;13573;50.936;4.328;2023-02-28T05:31:19;18.47;;;10.93;;
25715;SDS011;13573;50.936;4.328;2023-02-28T05:33:46;20.50;;;10.90;;
25715;SDS011;13573;50.936;4.328;2023-02-28T05:36:13;19.87;;;10.77;;
25715;SDS011;13573;50.936;4.328;2023-02-28T05:38:40;19.57;;;10.97;;
25715;SDS011;13573;50.936;4.328;2023-02-28T05:41:07;21.43;;;10.90;;
25715;SDS011;13573;50.936;4.328;2023-02-28T05:43:36;19.73;;;10.80;;
25715;SDS011;13573;50.936;4.328;2023-02-28T05:46:04;22.13;;;11.07;;
25715;SDS011;13573;50.936;4.328;2023-02-28T05:48:31;21.57;;;10.83;;
25715;SDS011;13573;50.936;4.328;2023-02-28T05:50:59;22.43;;;11.57;;
25715;SDS011;13573;50.936;4.328;2023-02-28T05:53:26;23.60;;;10.70;;
25715;SDS011;13573;50.936;4.328;2023-02-28T05:55:53;22.33;;;11.20;;
25715;SDS011;13573;50.936;4.328;2023-02-28T05:58:19;21.40;;;11.33;;
25715;SDS011;13573;50.936;4.328;2023-02-28T06:00:48;18.33;;;10.93;;
25715;SDS011;13573;50.936;4.328;2023-02-28T06:03:15;18.30;;;10.60;;
25715;SDS011;13573;50.936;4.328;2023-02-28T06:05:41;21.07;;;10.93;;
25715;SDS011;13573;50.936;4.328;2023-02-28T06:08:08;20.17;;;10.30;;
25715;SDS011;13573;50.936;4.328;2023-02-28T06:10:34;22.97;;;10.43;;
25715;SDS011;13573;50.936;4.328;2023-02-28T06:13:02;17.90;;;10.77;;
25715;SDS011;13573;50.936;4.328;2023-02-28T06:15:29;21.97;;;10.57;;
25715;SDS011;13573;50.936;4.328;2023-02-28T06:17:56;18.23;;;10.23;;
25715;SDS011;13573;50.936;4.328;2023-02-28T06:20:24;16.07;;;10.13;;
25715;SDS011;13573;50.936;4.328;2023-02-28T06:22:54;22.10;;;10.83;;
25715;SDS011;13573;50.936;4.328;2023-02-28T06:25:21;21.07;;;10.80;;
25715;SDS011;13573;50.936;4.328;2023-02-28T06:27:48;18.27;;;10.27;;
25715;SDS011;13573;50.936;4.328;2023-02-28T06:30:14;23.67;;;11.37;;
25715;SDS011;13573;50.936;4.328;2023-02-28T06:32:43;19.37;;;10.40;;
25715;SDS011;13573;50.936;4.328;2023-02-28T06:35:10;18.97;;;10.00;;
25715;SDS011;13573;50.936;4.328;2023-02-28T06:37:37;16.37;;;9.07;;
25715;SDS011;13573;50.936;4.328;2023-02-28T06:40:03;18.93;;;11.03;;
25715;SDS011;13573;50.936;4.328;2023-02-28T06:42:32;19.93;;;10.77;;
25715;SDS011;13573;50.936;4.328;2023-02-28T06:44:59;18.27;;;9.70;;
25715;SDS011;13573;50.936;4.328;2023-02-28T06:47:25;18.13;;;10.13;;
25715;SDS011;13573;50.936;4.328;2023-02-28T06:49:53;19.00;;;10.23;;
25715;SDS011;13573;50.936;4.328;2023-02-28T06:52:20;21.70;;;10.40;;
25715;SDS011;13573;50.936;4.328;2023-02-28T06:54:47;16.33;;;9.17;;
25715;SDS011;13573;50.936;4.328;2023-02-28T06:57:16;16.80;;;10.10;;
25715;SDS011;13573;50.936;4.328;2023-02-28T06:59:43;13.80;;;8.83;;
25715;SDS011;13573;50.936;4.328;2023-02-28T07:02:09;14.60;;;9.10;;
25715;SDS011;13573;50.936;4.328;2023-02-28T07:04:36;22.90;;;10.37;;
25715;SDS011;13573;50.936;4.328;2023-02-28T07:07:05;17.90;;;9.60;;
25715;SDS011;13573;50.936;4.328;2023-02-28T07:09:31;18.33;;;9.47;;
25715;SDS011;13573;50.936;4.328;2023-02-28T07:11:58;16.87;;;9.23;;
25715;SDS011;13573;50.936;4.328;2023-02-28T07:14:26;19.80;;;9.17;;
25715;SDS011;13573;50.936;4.328;2023-02-28T07:16:52;19.60;;;9.33;;
25715;SDS011;13573;50.936;4.328;2023-02-28T07:19:19;18.13;;;9.60;;
25715;SDS011;13573;50.936;4.328;2023-02-28T07:21:46;15.17;;;9.40;;
25715;SDS011;13573;50.936;4.328;2023-02-28T07:24:12;20.93;;;10.03;;
25715;SDS011;13573;50.936;4.328;2023-02-28T07:26:41;15.07;;;9.20;;
25715;SDS011;13573;50.936;4.328;2023-02-28T07:29:08;14.73;;;9.10;;
25715;SDS011;13573;50.936;4.328;2023-02-28T07:31:35;23.63;;;9.30;;
25715;SDS011;13573;50.936;4.328;2023-02-28T07:34:01;14.30;;;8.90;;
25715;SDS011;13573;50.936;4.328;2023-02-28T07:36:29;16.53;;;8.57;;
25715;SDS011;13573;50.936;4.328;2023-02-28T07:38:55;14.27;;;8.67;;
25715;SDS011;13573;50.936;4.328;2023-02-28T07:41:22;14.53;;;8.60;;
25715;SDS011;13573;50.936;4.328;2023-02-28T07:43:52;14.57;;;8.20;;
25715;SDS011;13573;50.936;4.328;2023-02-28T07:46:21;16.97;;;8.23;;
25715;SDS011;13573;50.936;4.328;2023-02-28T07:48:47;12.63;;;7.63;;
25715;SDS011;13573;50.936;4.328;2023-02-28T07:51:14;13.57;;;7.77;;
25715;SDS011;13573;50.936;4.328;2023-02-28T07:53:41;11.40;;;7.40;;
25715;SDS011;13573;50.936;4.328;2023-02-28T07:56:08;14.53;;;6.83;;
25715;SDS011;13573;50.936;4.328;2023-02-28T07:58:36;11.53;;;6.70;;
25715;SDS011;13573;50.936;4.328;2023-02-28T08:01:08;14.57;;;6.90;;
25715;SDS011;13573;50.936;4.328;2023-02-28T08:03:35;10.63;;;6.40;;
25715;SDS011;13573;50.936;4.328;2023-02-28T08:06:04;10.63;;;6.57;;
25715;SDS011;13573;50.936;4.328;2023-02-28T08:08:32;10.00;;;6.27;;
25715;SDS011;13573;50.936;4.328;2023-02-28T08:11:00;10.27;;;6.47;;
25715;SDS011;13573;50.936;4.328;2023-02-28T08:13:28;12.23;;;6.17;;
25715;SDS011;13573;50.936;4.328;2023-02-28T08:15:55;11.07;;;6.23;;
25715;SDS011;13573;50.936;4.328;2023-02-28T08:18:22;12.17;;;6.10;;
25715;SDS011;13573;50.936;4.328;2023-02-28T08:20:49;10.77;;;5.77;;
25715;SDS011;13573;50.936;4.328;2023-02-28T08:23:16;10.20;;;5.63;;
25715;SDS011;13573;50.936;4.328;2023-02-28T08:25:43;11.53;;;5.00;;
25715;SDS011;13573;50.936;4.328;2023-02-28T08:28:09;7.83;;;5.13;;
25715;SDS011;13573;50.936;4.328;2023-02-28T08:30:36;8.97;;;5.10;;
25715;SDS011;13573;50.936;4.328;2023-02-28T08:33:03;10.87;;;5.13;;
25715;SDS011;13573;50.936;4.328;2023-02-28T08:35:30;6.93;;;5.00;;
25715;SDS011;13573;50.936;4.328;2023-02-28T08:37:56;9.67;;;5.00;;
25715;SDS011;13573;50.936;4.328;2023-02-28T08:40:23;11.77;;;4.63;;
25715;SDS011;13573;50.936;4.328;2023-02-28T08:42:51;7.50;;;4.37;;
25715;SDS011;13573;50.936;4.328;2023-02-28T08:45:18;8.20;;;4.40;;
25715;SDS011;13573;50.936;4.328;2023-02-28T08:47:45;9.50;;;4.50;;
25715;SDS011;13573;50.936;4.328;2023-02-28T08:50:12;7.33;;;3.93;;
25715;SDS011;13573;50.936;4.328;2023-02-28T08:52:42;10.60;;;4.40;;
25715;SDS011;13573;50.936;4.328;2023-02-28T08:55:09;12.00;;;4.20;;
25715;SDS011;13573;50.936;4.328;2023-02-28T08:57:36;6.87;;;4.33;;
25715;SDS011;13573;50.936;4.328;2023-02-28T09:00:03;5.50;;;3.93;;
25715;SDS011;13573;50.936;4.328;2023-02-28T09:02:31;7.97;;;4.20;;
25715;SDS011;13573;50.936;4.328;2023-02-28T09:04:58;8.13;;;3.87;;
25715;SDS011;13573;50.936;4.328;2023-02-28T09:07:24;8.60;;;4.13;;
25715;SDS011;13573;50.936;4.328;2023-02-28T09:09:51;6.97;;;3.47;;
25715;SDS011;13573;50.936;4.328;2023-02-28T09:12:21;4.97;;;3.40;;
25715;SDS011;13573;50.936;4.328;2023-02-28T09:14:50;5.17;;;3.30;;
25715;SDS011;13573;50.936;4.328;2023-02-28T09:17:18;4.90;;;3.13;;
25715;SDS011;13573;50.936;4.328;2023-02-28T09:19:48;7.97;;;3.10;;
25715;SDS011;13573;50.936;4.328;2023-02-28T09:22:15;6.50;;;3.23;;
25715;SDS011;13573;50.936;4.328;2023-02-28T09:24:42;5.90;;;4.17;;
25715;SDS011;13573;50.936;4.328;2023-02-28T09:27:10;8.87;;;3.60;;
25715;SDS011;13573;50.936;4.328;2023-02-28T09:29:36;4.77;;;3.30;;
25715;SDS011;13573;50.936;4.328;2023-02-28T09:32:03;4.80;;;2.73;;
25715;SDS011;13573;50.936;4.328;2023-02-28T09:34:31;5.40;;;3.10;;
25715;SDS011;13573;50.936;4.328;2023-02-28T09:36:58;5.90;;;3.23;;
25715;SDS011;13573;50.936;4.328;2023-02-28T09:39:24;3.97;;;2.57;;
25715;SDS011;13573;50.936;4.328;2023-02-28T09:41:52;3.63;;;2.77;;
25715;SDS011;13573;50.936;4.328;2023-02-28T09:44:25;4.63;;;2.90;;
25715;SDS011;13573;50.936;4.328;2023-02-28T09:46:59;3.97;;;2.80;;
25715;SDS011;13573;50.936;4.328;2023-02-28T09:49:31;6.53;;;2.93;;
25715;SDS011;13573;50.936;4.328;2023-02-28T09:52:02;4.63;;;2.53;;
25715;SDS011;13573;50.936;4.328;2023-02-28T09:54:33;7.00;;;2.70;;
25715;SDS011;13573;50.936;4.328;2023-02-28T09:57:10;3.33;;;2.33;;
25715;SDS011;13573;50.936;4.328;2023-02-28T10:00:01;5.70;;;3.07;;
25715;SDS011;13573;50.936;4.328;2023-02-28T10:02:53;3.90;;;2.50;;
25715;SDS011;13573;50.936;4.328;2023-02-28T10:05:28;7.57;;;2.97;;
25715;SDS011;13573;50.936;4.328;2023-02-28T10:08:08;5.27;;;2.73;;
25715;SDS011;13573;50.936;4.328;2023-02-28T10:10:45;5.17;;;2.80;;
25715;SDS011;13573;50.936;4.328;2023-02-28T10:13:17;4.47;;;2.80;;
25715;SDS011;13573;50.936;4.328;2023-02-28T10:15:47;3.87;;;2.97;;
25715;SDS011;13573;50.936;4.328;2023-02-28T10:18:19;4.57;;;2.90;;
25715;SDS011;13573;50.936;4.328;2023-02-28T10:20:47;4.43;;;2.60;;
25715;SDS011;13573;50.936;4.328;2023-02-28T10:23:17;3.87;;;2.70;;
25715;SDS011;13573;50.936;4.328;2023-02-28T10:25:57;4.70;;;2.40;;
25715;SDS011;13573;50.936;4.328;2023-02-28T10:28:26;6.43;;;2.97;;
25715;SDS011;13573;50.936;4.328;2023-02-28T10:30:56;3.17;;;2.30;;
25715;SDS011;13573;50.936;4.328;2023-02-28T10:33:28;5.13;;;2.60;;
25715;SDS011;13573;50.936;4.328;2023-02-28T10:35:56;4.40;;;2.47;;
25715;SDS011;13573;50.936;4.328;2023-02-28T10:38:31;4.87;;;2.30;;
25715;SDS011;13573;50.936;4.328;2023-02-28T10:41:04;4.17;;;2.40;;
25715;SDS011;13573;50.936;4.328;2023-02-28T10:43:32;4.47;;;2.50;;
25715;SDS011;13573;50.936;4.328;2023-02-28T10:46:01;6.20;;;2.50;;
25715;SDS011;13573;50.936;4.328;2023-02-28T10:48:32;3.50;;;2.43;;
25715;SDS011;13573;50.936;4.328;2023-02-28T10:51:01;6.33;;;2.40;;
25715;SDS011;13573;50.936;4.328;2023-02-28T10:53:31;4.40;;;2.30;;
25715;SDS011;13573;50.936;4.328;2023-02-28T10:56:05;3.40;;;2.50;;
25715;SDS011;13573;50.936;4.328;2023-02-28T10:58:47;4.57;;;2.50;;
25715;SDS011;13573;50.936;4.328;2023-02-28T11:01:21;4.23;;;2.60;;
25715;SDS011;13573;50.936;4.328;2023-02-28T11:03:48;5.23;;;2.27;;
25715;SDS011;13573;50.936;4.328;2023-02-28T11:06:20;3.07;;;2.17;;
25715;SDS011;13573;50.936;4.328;2023-02-28T11:08:49;4.63;;;2.37;;
25715;SDS011;13573;50.936;4.328;2023-02-28T11:11:16;2.97;;;2.33;;
25715;SDS011;13573;50.936;4.328;2023-02-28T11:13:45;2.83;;;2.30;;
25715;SDS011;13573;50.936;4.328;2023-02-28T11:16:16;3.40;;;2.27;;
25715;SDS011;13573;50.936;4.328;2023-02-28T11:18:47;3.80;;;2.47;;
25715;SDS011;13573;50.936;4.328;2023-02-28T11:21:17;3.33;;;2.70;;
25715;SDS011;13573;50.936;4.328;2023-02-28T11:23:46;4.63;;;2.40;;
25715;SDS011;13573;50.936;4.328;2023-02-28T11:26:15;3.13;;;2.43;;
25715;SDS011;13573;50.936;4.328;2023-02-28T11:28:44;2.53;;;2.20;;
25715;SDS011;13573;50.936;4.328;2023-02-28T11:31:16;4.00;;;2.60;;
25715;SDS011;13573;50.936;4.328;2023-02-28T11:33:46;3.33;;;2.30;;
25715;SDS011;13573;50.936;4.328;2023-02-28T11:36:19;9.93;;;3.07;;
25715;SDS011;13573;50.936;4.328;2023-02-28T11:38:50;4.00;;;2.50;;
25715;SDS011;13573;50.936;4.328;2023-02-28T11:41:22;6.83;;;2.50;;
25715;SDS011;13573;50.936;4.328;2023-02-28T11:44:18;3.87;;;3.00;;
25715;SDS011;13573;50.936;4.328;2023-02-28T11:47:04;4.63;;;2.53;;
25715;SDS011;13573;50.936;4.328;2023-02-28T11:49:36;5.97;;;2.30;;
25715;SDS011;13573;50.936;4.328;2023-02-28T11:52:10;3.00;;;2.13;;
25715;SDS011;13573;50.936;4.328;2023-02-28T11:55:49;4.40;;;2.60;;
25715;SDS011;13573;50.936;4.328;2023-02-28T11:57:35;6.37;;;2.83;;
25715;SDS011;13573;50.936;4.328;2023-02-28T12:00:37;3.80;;;2.57;;
25715;SDS011;13573;50.936;4.328;2023-02-28T12:03:14;6.67;;;2.80;;
25715;SDS011;13573;50.936;4.328;2023-02-28T12:05:45;4.33;;;3.07;;
25715;SDS011;13573;50.936;4.328;2023-02-28T12:08:26;4.83;;;2.87;;
25715;SDS011;13573;50.936;4.328;2023-02-28T12:11:13;6.37;;;2.83;;
25715;SDS011;13573;50.936;4.328;2023-02-28T12:13:43;3.27;;;2.67;;
25715;SDS011;13573;50.936;4.328;2023-02-28T12:16:18;6.43;;;2.90;;
25715;SDS011;13573;50.936;4.328;2023-02-28T12:20:13;3.57;;;2.70;;
25715;SDS011;13573;50.936;4.328;2023-02-28T12:22:09;3.53;;;2.00;;
25715;SDS011;13573;50.936;4.328;2023-02-28T12:24:39;4.10;;;2.57;;
25715;SDS011;13573;50.936;4.328;2023-02-28T12:27:13;4.40;;;2.20;;
25715;SDS011;13573;50.936;4.328;2023-02-28T12:29:46;5.93;;;2.40;;
25715;SDS011;13573;50.936;4.328;2023-02-28T12:32:16;3.73;;;2.40;;
25715;SDS011;13573;50.936;4.328;2023-02-28T12:34:49;5.27;;;2.43;;
25715;SDS011;13573;50.936;4.328;2023-02-28T12:37:22;6.87;;;2.37;;
25715;SDS011;13573;50.936;4.328;2023-02-28T12:39:55;2.80;;;2.30;;
25715;SDS011;13573;50.936;4.328;2023-02-28T12:42:26;5.03;;;2.83;;
25715;SDS011;13573;50.936;4.328;2023-02-28T12:44:57;3.43;;;2.33;;
25715;SDS011;13573;50.936;4.328;2023-02-28T12:47:26;4.30;;;2.47;;
25715;SDS011;13573;50.936;4.328;2023-02-28T12:49:57;3.23;;;2.40;;
25715;SDS011;13573;50.936;4.328;2023-02-28T12:52:34;4.20;;;2.43;;
25715;SDS011;13573;50.936;4.328;2023-02-28T12:55:01;3.63;;;2.10;;
25715;SDS011;13573;50.936;4.328;2023-02-28T12:57:45;3.67;;;2.30;;
25715;SDS011;13573;50.936;4.328;2023-02-28T13:00:13;4.20;;;2.20;;
25715;SDS011;13573;50.936;4.328;2023-02-28T13:05:27;3.40;;;2.60;;
25715;SDS011;13573;50.936;4.328;2023-02-28T13:08:04;6.80;;;2.60;;
25715;SDS011;13573;50.936;4.328;2023-02-28T13:10:50;3.90;;;2.47;;
25715;SDS011;13573;50.936;4.328;2023-02-28T13:13:21;4.00;;;2.77;;
25715;SDS011;13573;50.936;4.328;2023-02-28T13:15:58;3.50;;;2.47;;
25715;SDS011;13573;50.936;4.328;2023-02-28T13:18:35;5.13;;;2.90;;
25715;SDS011;13573;50.936;4.328;2023-02-28T13:21:06;3.23;;;2.67;;
25715;SDS011;13573;50.936;4.328;2023-02-28T13:23:37;4.00;;;2.50;;
25715;SDS011;13573;50.936;4.328;2023-02-28T13:26:09;4.13;;;2.80;;
25715;SDS011;13573;50.936;4.328;2023-02-28T13:31:31;5.80;;;4.00;;
25715;SDS011;13573;50.936;4.328;2023-02-28T13:34:05;5.73;;;3.00;;
25715;SDS011;13573;50.936;4.328;2023-02-28T13:36:34;4.20;;;3.03;;
25715;SDS011;13573;50.936;4.328;2023-02-28T13:39:02;3.30;;;2.70;;
25715;SDS011;13573;50.936;4.328;2023-02-28T13:44:15;4.40;;;2.70;;
25715;SDS011;13573;50.936;4.328;2023-02-28T13:47:20;3.87;;;2.73;;
25715;SDS011;13573;50.936;4.328;2023-02-28T13:49:45;3.73;;;2.70;;
25715;SDS011;13573;50.936;4.328;2023-02-28T13:52:15;5.70;;;3.07;;
25715;SDS011;13573;50.936;4.328;2023-02-28T13:55:24;3.70;;;2.80;;
25715;SDS011;13573;50.936;4.328;2023-02-28T13:57:53;5.23;;;2.93;;
25715;SDS011;13573;50.936;4.328;2023-02-28T14:00:31;4.13;;;2.80;;
25715;SDS011;13573;50.936;4.328;2023-02-28T14:08:57;4.13;;;3.23;;
25715;SDS011;13573;50.936;4.328;2023-02-28T14:11:40;4.20;;;3.10;;
25715;SDS011;13573;50.936;4.328;2023-02-28T14:14:09;3.97;;;3.03;;
25715;SDS011;13573;50.936;4.328;2023-02-28T14:16:44;4.20;;;3.20;;
25715;SDS011;13573;50.936;4.328;2023-02-28T14:19:14;8.23;;;3.20;;
25715;SDS011;13573;50.936;4.328;2023-02-28T14:21:51;7.10;;;3.60;;
25715;SDS011;13573;50.936;4.328;2023-02-28T14:24:30;4.43;;;3.13;;
25715;SDS011;13573;50.936;4.328;2023-02-28T14:27:04;4.80;;;3.03;;
25715;SDS011;13573;50.936;4.328;2023-02-28T14:29:40;5.23;;;3.37;;
25715;SDS011;13573;50.936;4.328;2023-02-28T14:32:15;8.13;;;3.73;;
25715;SDS011;13573;50.936;4.328;2023-02-28T14:34:49;7.67;;;3.83;;
25715;SDS011;13573;50.936;4.328;2023-02-28T14:37:20;5.47;;;3.80;;
25715;SDS011;13573;50.936;4.328;2023-02-28T14:39:51;6.27;;;3.27;;
25715;SDS011;13573;50.936;4.328;2023-02-28T14:42:38;6.03;;;3.67;;
25715;SDS011;13573;50.936;4.328;2023-02-28T14:45:16;8.13;;;3.93;;
25715;SDS011;13573;50.936;4.328;2023-02-28T14:47:41;7.27;;;4.20;;
25715;SDS011;13573;50.936;4.328;2023-02-28T14:50:17;5.60;;;3.73;;
25715;SDS011;13573;50.936;4.328;2023-02-28T14:52:43;12.07;;;4.00;;
25715;SDS011;13573;50.936;4.328;2023-02-28T14:55:12;6.20;;;3.40;;
25715;SDS011;13573;50.936;4.328;2023-02-28T14:57:41;5.77;;;3.60;;
25715;SDS011;13573;50.936;4.328;2023-02-28T15:00:26;7.50;;;4.07;;
25715;SDS011;13573;50.936;4.328;2023-02-28T15:02:58;8.73;;;4.07;;
25715;SDS011;13573;50.936;4.328;2023-02-28T15:05:27;7.10;;;4.23;;
25715;SDS011;13573;50.936;4.328;2023-02-28T15:08:03;6.40;;;3.40;;
25715;SDS011;13573;50.936;4.328;2023-02-28T15:10:43;7.47;;;3.43;;
25715;SDS011;13573;50.936;4.328;2023-02-28T15:13:13;5.93;;;3.37;;
25715;SDS011;13573;50.936;4.328;2023-02-28T15:15:43;4.90;;;3.60;;
25715;SDS011;13573;50.936;4.328;2023-02-28T15:18:22;5.03;;;3.60;;
25715;SDS011;13573;50.936;4.328;2023-02-28T15:20:51;9.10;;;3.97;;
25715;SDS011;13573;50.936;4.328;2023-02-28T15:23:19;5.50;;;3.87;;
25715;SDS011;13573;50.936;4.328;2023-02-28T15:25:47;7.27;;;4.00;;
25715;SDS011;13573;50.936;4.328;2023-02-28T15:28:18;10.83;;;4.50;;
25715;SDS011;13573;50.936;4.328;2023-02-28T15:31:16;9.00;;;4.60;;